createdAt,value
2017-12-21T00:00:16.808Z,179.50
2017-12-21T00:02:19.454Z,165.37
2017-12-21T00:04:22.105Z,196.10
2017-12-21T00:06:25.964Z,144.93
2017-12-21T00:08:28.600Z,177.57
2017-12-21T00:10:31.256Z,202.07
2017-12-21T00:12:33.934Z,240.07
2017-12-21T00:14:36.596Z,173.20
2017-12-21T00:16:40.051Z,258.07
2017-12-21T00:18:42.781Z,199.53
2017-12-21T00:20:45.468Z,235.27
2017-12-21T00:22:48.151Z,230.97
2017-12-21T00:24:50.792Z,171.57
2017-12-21T00:26:54.195Z,227.30
2017-12-21T00:28:56.877Z,225.63
2017-12-21T00:30:59.558Z,171.83
2017-12-21T00:33:02.201Z,206.53
2017-12-21T00:35:05.765Z,167.57
2017-12-21T00:37:08.508Z,179.63
2017-12-21T00:39:11.156Z,152.93
2017-12-21T00:41:14.611Z,154.87
2017-12-21T00:43:17.330Z,176.90
2017-12-21T00:45:20.791Z,188.67
2017-12-21T00:47:23.465Z,193.70
2017-12-21T00:49:26.112Z,163.10
2017-12-21T00:51:28.964Z,190.03
2017-12-21T00:53:31.652Z,190.80
2017-12-21T00:55:34.444Z,157.30
2017-12-21T00:57:37.245Z,197.07
2017-12-21T00:59:40.023Z,172.63
2017-12-21T01:01:42.702Z,178.03
2017-12-21T01:03:45.462Z,170.53
2017-12-21T01:05:48.118Z,158.33
2017-12-21T01:07:50.800Z,143.40
2017-12-21T01:09:53.532Z,144.27
2017-12-21T01:11:56.360Z,164.37
2017-12-21T01:13:59.047Z,163.23
2017-12-21T01:16:01.920Z,151.37
2017-12-21T01:18:04.795Z,176.97
2017-12-21T01:20:07.577Z,137.27
2017-12-21T01:22:10.277Z,171.00
2017-12-21T01:24:13.289Z,184.37
2017-12-21T01:26:15.951Z,164.97
2017-12-21T01:28:18.748Z,158.97
2017-12-21T01:30:22.177Z,153.50
2017-12-21T01:32:24.825Z,165.60
2017-12-21T01:34:28.296Z,152.73
2017-12-21T01:36:30.962Z,148.97
2017-12-21T01:38:33.616Z,153.57
2017-12-21T01:40:36.345Z,134.80
2017-12-21T01:42:39.793Z,144.97
2017-12-21T01:44:42.509Z,137.90
2017-12-21T01:46:45.205Z,145.03
2017-12-21T01:48:48.744Z,153.97
2017-12-21T01:50:51.418Z,160.17
2017-12-21T01:52:54.129Z,132.70
2017-12-21T01:54:56.789Z,157.67
2017-12-21T01:56:59.452Z,148.90
2017-12-21T01:59:02.239Z,152.97
2017-12-21T02:01:04.942Z,159.87
2017-12-21T02:03:07.593Z,164.23
2017-12-21T02:05:10.270Z,177.73
2017-12-21T02:07:12.936Z,176.77
2017-12-21T02:09:15.616Z,162.10
2017-12-21T02:11:18.314Z,149.50
2017-12-21T02:13:20.960Z,165.87
2017-12-21T02:15:23.721Z,177.37
2017-12-21T02:17:26.402Z,201.83
2017-12-21T02:19:29.120Z,159.87
2017-12-21T02:21:31.895Z,235.10
2017-12-21T02:23:34.636Z,181.43
2017-12-21T02:25:37.334Z,190.57
2017-12-21T02:27:40.104Z,208.63
2017-12-21T02:29:42.791Z,197.93
2017-12-21T02:31:45.492Z,252.93
2017-12-21T02:33:48.217Z,224.80
2017-12-21T02:35:51.025Z,286.63
2017-12-21T02:37:53.716Z,209.53
2017-12-21T02:39:56.415Z,220.40
2017-12-21T02:41:59.848Z,241.33
2017-12-21T02:44:02.543Z,219.17
2017-12-21T02:46:05.278Z,257.67
2017-12-21T02:48:07.984Z,221.27
2017-12-21T02:50:10.665Z,241.23
2017-12-21T02:52:13.426Z,217.60
2017-12-21T02:54:16.164Z,212.20
2017-12-21T02:56:19.681Z,216.53
2017-12-21T02:58:22.420Z,340.67
2017-12-21T03:00:25.215Z,284.80
2017-12-21T03:02:28.039Z,220.03
2017-12-21T03:04:31.296Z,210.23
2017-12-21T03:06:34.791Z,217.43
2017-12-21T03:08:38.298Z,261.73
2017-12-21T03:10:41.832Z,171.30
2017-12-21T03:12:44.629Z,190.67
2017-12-21T03:14:47.364Z,220.70
2017-12-21T03:16:50.164Z,217.03
2017-12-21T03:18:52.922Z,229.40
2017-12-21T03:20:55.644Z,179.10
2017-12-21T03:22:58.452Z,207.13
2017-12-21T03:25:01.947Z,195.23
2017-12-21T03:27:05.471Z,191.73
2017-12-21T03:29:08.216Z,185.47
2017-12-21T03:31:11.681Z,216.80
2017-12-21T03:33:14.329Z,209.70
2017-12-21T03:35:17.008Z,225.80
2017-12-21T03:37:19.683Z,187.77
2017-12-21T03:39:22.353Z,194.27
2017-12-21T03:41:25.034Z,176.23
2017-12-21T03:43:27.736Z,179.07
2017-12-21T03:45:30.408Z,140.20
2017-12-21T03:47:33.122Z,163.70
2017-12-21T03:49:36.555Z,189.53
2017-12-21T03:51:39.244Z,171.17
2017-12-21T03:53:41.949Z,207.00
2017-12-21T03:55:44.642Z,167.20
2017-12-21T03:57:48.126Z,152.60
2017-12-21T03:59:52.444Z,162.33
2017-12-21T04:01:55.248Z,169.07
2017-12-21T04:03:58.688Z,177.77
2017-12-21T04:06:01.443Z,179.97
2017-12-21T04:08:04.101Z,140.03
2017-12-21T04:10:07.605Z,141.33
2017-12-21T04:12:10.419Z,236.77
2017-12-21T04:14:13.279Z,179.27
2017-12-21T04:16:15.960Z,172.10
2017-12-21T04:18:18.847Z,178.20
2017-12-21T04:20:21.606Z,195.63
2017-12-21T04:22:24.262Z,201.07
2017-12-21T04:24:27.727Z,172.30
2017-12-21T04:26:31.145Z,237.77
2017-12-21T04:28:34.584Z,190.63
2017-12-21T04:30:37.329Z,209.20
2017-12-21T04:32:40.019Z,204.90
2017-12-21T04:34:42.740Z,229.37
2017-12-21T04:36:45.428Z,204.77
2017-12-21T04:38:48.098Z,290.37
2017-12-21T04:40:50.819Z,183.57
2017-12-21T04:42:53.502Z,220.23
2017-12-21T04:44:56.386Z,275.07
2017-12-21T04:46:59.160Z,329.07
2017-12-21T04:49:01.851Z,391.93
2017-12-21T04:51:04.497Z,223.13
2017-12-21T04:53:07.242Z,269.53
2017-12-21T04:55:09.945Z,200.07
2017-12-21T04:57:13.564Z,268.00
2017-12-21T04:59:16.301Z,224.30
2017-12-21T05:01:19.071Z,260.67
2017-12-21T05:03:21.825Z,240.70
2017-12-21T05:05:24.526Z,308.73
2017-12-21T05:07:31.303Z,302.13
2017-12-21T05:09:34.061Z,245.63
2017-12-21T05:11:36.837Z,240.10
2017-12-21T05:13:39.687Z,273.37
2017-12-21T05:15:42.557Z,299.30
2017-12-21T05:17:45.472Z,253.57
2017-12-21T05:19:48.257Z,305.73
2017-12-21T05:21:50.972Z,307.63
2017-12-21T05:23:54.589Z,296.90
2017-12-21T05:25:57.265Z,249.90
2017-12-21T05:28:00.058Z,236.03
2017-12-21T05:30:02.753Z,233.93
2017-12-21T05:32:05.422Z,302.67
2017-12-21T05:34:08.123Z,247.30
2017-12-21T05:36:10.811Z,243.27
2017-12-21T05:38:13.526Z,211.83
2017-12-21T05:40:16.944Z,190.63
2017-12-21T05:42:19.616Z,199.23
2017-12-21T05:44:22.299Z,223.07
2017-12-21T05:46:24.967Z,288.50
2017-12-21T05:48:27.660Z,249.37
2017-12-21T05:50:30.333Z,200.43
2017-12-21T05:52:32.995Z,238.90
2017-12-21T05:54:35.814Z,256.77
2017-12-21T05:56:38.461Z,274.13
2017-12-21T05:58:41.154Z,266.10
2017-12-21T06:00:43.856Z,276.17
2017-12-21T06:02:46.592Z,281.53
2017-12-21T06:04:49.281Z,255.13
2017-12-21T06:06:51.959Z,258.77
2017-12-21T06:08:54.641Z,286.33
2017-12-21T06:10:57.304Z,249.00
2017-12-21T06:12:59.952Z,234.70
2017-12-21T06:15:02.692Z,206.27
2017-12-21T06:17:05.301Z,278.40
2017-12-21T06:19:07.981Z,221.27
2017-12-21T06:21:10.630Z,217.93
2017-12-21T06:23:13.289Z,217.87
2017-12-21T06:25:16.029Z,207.43
2017-12-21T06:27:18.680Z,290.83
2017-12-21T06:29:21.337Z,218.07
2017-12-21T06:31:24.793Z,256.77
2017-12-21T06:33:27.635Z,271.07
2017-12-21T06:35:30.307Z,356.33
2017-12-21T06:37:32.980Z,245.97
2017-12-21T06:39:35.626Z,272.70
2017-12-21T06:41:39.062Z,302.50
2017-12-21T06:43:41.743Z,224.60
2017-12-21T06:45:44.667Z,220.77
2017-12-21T06:47:47.700Z,290.70
2017-12-21T06:49:50.456Z,244.47
2017-12-21T06:51:53.142Z,218.07
2017-12-21T06:53:55.921Z,272.57
2017-12-21T06:56:00.891Z,279.77
2017-12-21T06:58:03.751Z,211.60
2017-12-21T07:00:07.436Z,302.97
2017-12-21T07:02:10.389Z,184.50
2017-12-21T07:04:13.939Z,191.70
2017-12-21T07:06:16.664Z,166.30
2017-12-21T07:08:20.317Z,183.63
2017-12-21T07:10:23.113Z,175.07
2017-12-21T07:12:26.708Z,175.47
2017-12-21T07:14:29.670Z,151.23
2017-12-21T07:16:33.458Z,191.43
2017-12-21T07:18:36.251Z,224.37
2017-12-21T07:20:38.997Z,176.37
2017-12-21T07:22:42.484Z,169.43
2017-12-21T07:24:46.027Z,189.43
2017-12-21T07:26:49.706Z,193.63
2017-12-21T07:28:52.463Z,192.80
2017-12-21T07:30:55.936Z,219.20
2017-12-21T07:32:58.611Z,196.00
2017-12-21T07:35:01.277Z,158.87
2017-12-21T07:37:03.942Z,190.13
2017-12-21T07:39:06.619Z,157.87
2017-12-21T07:41:09.313Z,175.87
2017-12-21T07:43:11.962Z,151.13
2017-12-21T07:45:14.643Z,151.63
2017-12-21T07:47:17.290Z,143.53
2017-12-21T07:49:20.015Z,157.60
2017-12-21T07:51:22.715Z,126.43
2017-12-21T07:53:25.360Z,156.27
2017-12-21T07:55:28.037Z,128.80
2017-12-21T07:57:30.752Z,112.60
2017-12-21T07:59:34.243Z,162.97
2017-12-21T08:01:37.677Z,132.67
2017-12-21T08:03:40.333Z,123.60
2017-12-21T08:05:43.122Z,145.60
2017-12-21T08:07:45.804Z,143.20
2017-12-21T08:09:48.464Z,107.63
2017-12-21T08:11:51.152Z,125.03
2017-12-21T08:13:53.839Z,114.50
2017-12-21T08:15:56.523Z,170.67
2017-12-21T08:17:59.203Z,106.13
2017-12-21T08:20:01.851Z,97.47
2017-12-21T08:22:04.529Z,123.10
2017-12-21T08:24:07.221Z,133.37
2017-12-21T08:26:09.939Z,96.37
2017-12-21T08:28:13.404Z,103.87
2017-12-21T08:30:16.121Z,119.13
2017-12-21T08:32:19.531Z,119.00
2017-12-21T08:34:22.244Z,106.03
2017-12-21T08:36:24.898Z,138.70
2017-12-21T08:38:27.545Z,123.63
2017-12-21T08:40:30.990Z,117.63
2017-12-21T08:42:33.656Z,119.87
2017-12-21T08:44:36.367Z,122.47
2017-12-21T08:46:39.078Z,110.00
2017-12-21T08:48:42.492Z,118.43
2017-12-21T08:50:45.179Z,171.60
2017-12-21T08:52:47.948Z,156.03
2017-12-21T08:54:50.775Z,132.23
2017-12-21T08:56:53.574Z,135.20
2017-12-21T08:58:57.736Z,129.90
2017-12-21T09:01:01.367Z,113.60
2017-12-21T09:03:04.271Z,122.17
2017-12-21T09:05:07.242Z,135.50
2017-12-21T09:07:10.904Z,124.73
2017-12-21T09:09:13.727Z,128.33
2017-12-21T09:11:16.842Z,96.77
2017-12-21T09:13:19.823Z,142.97
2017-12-21T09:15:22.779Z,145.57
2017-12-21T09:17:26.545Z,115.90
2017-12-21T09:19:29.379Z,117.37
2017-12-21T09:21:32.063Z,113.83
2017-12-21T09:23:34.790Z,128.77
2017-12-21T09:25:37.757Z,103.93
2017-12-21T09:27:40.853Z,107.40
2017-12-21T09:29:43.537Z,116.40
2017-12-21T09:31:47.059Z,127.20
2017-12-21T09:33:49.731Z,106.70
2017-12-21T09:35:53.146Z,97.93
2017-12-21T09:37:55.852Z,101.80
2017-12-21T09:39:58.533Z,129.80
2017-12-21T09:42:01.226Z,104.37
2017-12-21T09:44:03.941Z,95.37
2017-12-21T09:46:06.604Z,107.07
2017-12-21T09:48:10.017Z,122.70
2017-12-21T09:50:12.711Z,120.47
2017-12-21T09:52:15.386Z,136.13
2017-12-21T09:54:18.073Z,117.63
2017-12-21T09:56:20.724Z,142.63
2017-12-21T09:58:23.443Z,140.47
2017-12-21T10:00:26.129Z,159.10
2017-12-21T10:02:28.783Z,176.47
2017-12-21T10:04:31.492Z,155.63
2017-12-21T10:06:34.169Z,177.87
2017-12-21T10:08:36.832Z,133.10
2017-12-21T10:10:39.515Z,101.90
2017-12-21T10:12:42.186Z,129.30
2017-12-21T10:14:44.862Z,93.53
2017-12-21T10:16:47.579Z,114.97
2017-12-21T10:18:50.283Z,108.33
2017-12-21T10:20:52.925Z,121.60
2017-12-21T10:22:56.352Z,87.23
2017-12-21T10:24:59.024Z,115.07
2017-12-21T10:27:01.693Z,91.30
2017-12-21T10:29:04.386Z,83.90
2017-12-21T10:31:07.094Z,86.23
2017-12-21T10:33:09.748Z,91.40
2017-12-21T10:35:12.451Z,96.87
2017-12-21T10:37:15.097Z,94.60
2017-12-21T10:39:17.771Z,104.13
2017-12-21T10:41:20.456Z,90.40
2017-12-21T10:43:23.132Z,83.90
2017-12-21T10:45:25.809Z,93.33
2017-12-21T10:47:28.476Z,98.13
2017-12-21T10:49:31.118Z,75.93
2017-12-21T10:51:33.835Z,82.00
2017-12-21T10:53:36.751Z,84.43
2017-12-21T10:55:40.313Z,101.10
2017-12-21T10:57:43.395Z,84.40
2017-12-21T10:59:46.163Z,79.60
2017-12-21T11:01:48.936Z,83.63
2017-12-21T11:03:51.782Z,101.63
2017-12-21T11:05:55.817Z,98.90
2017-12-21T11:07:58.579Z,116.13
2017-12-21T11:10:01.420Z,85.67
2017-12-21T11:12:04.557Z,125.00
2017-12-21T11:14:07.232Z,81.77
2017-12-21T11:16:10.006Z,95.17
2017-12-21T11:18:12.680Z,105.13
2017-12-21T11:20:15.436Z,94.57
2017-12-21T11:22:18.283Z,111.20
2017-12-21T11:24:21.281Z,116.23
2017-12-21T11:26:24.578Z,143.17
2017-12-21T11:28:27.424Z,89.43
2017-12-21T11:30:30.369Z,119.03
2017-12-21T11:32:33.203Z,116.23
2017-12-21T11:34:38.270Z,108.33
2017-12-21T11:36:41.834Z,119.23
2017-12-21T11:38:44.771Z,99.20
2017-12-21T11:40:47.449Z,129.57
2017-12-21T11:42:50.317Z,101.57
2017-12-21T11:44:53.129Z,102.53
2017-12-21T11:46:55.807Z,102.50
2017-12-21T11:48:58.476Z,116.90
2017-12-21T11:51:02.588Z,137.93
2017-12-21T11:53:05.479Z,147.40
2017-12-21T11:55:08.235Z,146.23
2017-12-21T11:57:10.887Z,199.53
2017-12-21T11:59:13.600Z,128.47
2017-12-21T12:01:16.298Z,117.20
2017-12-21T12:03:18.978Z,179.90
2017-12-21T12:05:21.690Z,147.27
2017-12-21T12:07:24.355Z,182.73
2017-12-21T12:09:27.818Z,170.83
2017-12-21T12:11:31.307Z,160.63
2017-12-21T12:13:34.987Z,145.67
2017-12-21T12:15:37.670Z,138.50
2017-12-21T12:17:40.443Z,114.90
2017-12-21T12:19:43.099Z,116.20
2017-12-21T12:21:45.803Z,117.57
2017-12-21T12:23:48.474Z,94.73
2017-12-21T12:25:51.197Z,92.53
2017-12-21T12:27:53.860Z,95.30
2017-12-21T12:29:56.597Z,78.70
2017-12-21T12:31:59.253Z,84.87
2017-12-21T12:34:01.934Z,126.50
2017-12-21T12:36:04.618Z,93.80
2017-12-21T12:38:07.265Z,99.87
2017-12-21T12:40:09.934Z,76.00
2017-12-21T12:42:13.571Z,88.13
2017-12-21T12:44:16.307Z,92.77
2017-12-21T12:46:19.209Z,92.53
2017-12-21T12:48:24.966Z,81.47
2017-12-21T12:50:28.458Z,80.70
2017-12-21T12:52:33.320Z,88.73
2017-12-21T12:54:40.714Z,75.47
2017-12-21T12:56:43.598Z,89.80
2017-12-21T12:58:46.409Z,81.70
2017-12-21T13:00:50.462Z,89.00
2017-12-21T13:02:53.145Z,103.30
2017-12-21T13:04:55.855Z,94.07
2017-12-21T13:06:58.532Z,86.87
2017-12-21T13:09:01.205Z,91.20
2017-12-21T13:11:04.774Z,98.97
2017-12-21T13:13:07.641Z,100.07
2017-12-21T13:15:11.213Z,80.27
2017-12-21T13:17:14.650Z,89.30
2017-12-21T13:19:17.382Z,83.07
2017-12-21T13:21:20.827Z,90.90
2017-12-21T13:23:23.515Z,93.90
2017-12-21T13:25:26.189Z,86.13
2017-12-21T13:27:28.856Z,95.60
2017-12-21T13:29:31.519Z,110.00
2017-12-21T13:31:34.510Z,91.83
2017-12-21T13:33:37.149Z,87.90
2017-12-21T13:35:39.781Z,76.00
2017-12-21T13:37:42.504Z,92.30
2017-12-21T13:39:45.167Z,82.57
2017-12-21T13:41:48.626Z,95.67
2017-12-21T13:43:51.319Z,73.43
2017-12-21T13:45:53.957Z,86.60
2017-12-21T13:47:56.831Z,62.40
2017-12-21T13:49:59.579Z,92.73
2017-12-21T13:52:02.249Z,113.97
2017-12-21T13:54:05.699Z,93.90
2017-12-21T13:56:08.406Z,93.23
2017-12-21T13:58:11.863Z,78.97
2017-12-21T14:00:14.549Z,101.80
2017-12-21T14:02:18.029Z,110.53
2017-12-21T14:04:20.920Z,82.40
2017-12-21T14:06:23.627Z,86.90
2017-12-21T14:08:26.301Z,71.60
2017-12-21T14:10:29.046Z,73.27
2017-12-21T14:12:31.676Z,66.63
2017-12-21T14:14:35.113Z,65.10
2017-12-21T14:16:37.780Z,70.43
2017-12-21T14:18:41.056Z,75.87
2017-12-21T14:20:43.840Z,66.33
2017-12-21T14:22:47.286Z,79.30
2017-12-21T14:24:50.727Z,64.70
2017-12-21T14:26:53.465Z,103.00
2017-12-21T14:28:56.892Z,78.60
2017-12-21T14:30:59.576Z,76.83
2017-12-21T14:33:02.230Z,74.10
2017-12-21T14:35:04.903Z,71.50
2017-12-21T14:37:07.598Z,77.03
2017-12-21T14:39:10.238Z,83.93
2017-12-21T14:41:12.916Z,67.43
2017-12-21T14:43:16.368Z,84.23
2017-12-21T14:45:19.136Z,71.53
2017-12-21T14:47:21.784Z,96.87
2017-12-21T14:49:24.491Z,98.50
2017-12-21T14:51:27.144Z,99.43
2017-12-21T14:53:29.840Z,104.20
2017-12-21T14:55:32.558Z,114.40
2017-12-21T14:57:35.277Z,114.13
2017-12-21T14:59:38.256Z,121.83
2017-12-21T15:01:40.994Z,121.10
2017-12-21T15:03:43.670Z,132.13
2017-12-21T15:05:46.338Z,159.17
2017-12-21T15:07:49.048Z,140.30
2017-12-21T15:09:52.491Z,138.33
2017-12-21T15:11:55.142Z,144.90
2017-12-21T15:13:57.851Z,142.10
2017-12-21T15:16:00.529Z,144.70
2017-12-21T15:18:03.189Z,129.87
2017-12-21T15:20:06.399Z,148.20
2017-12-21T15:22:09.104Z,177.80
2017-12-21T15:24:12.551Z,135.43
2017-12-21T15:26:16.022Z,156.27
2017-12-21T15:28:18.686Z,145.23
2017-12-21T15:30:21.389Z,144.97
2017-12-21T15:32:24.083Z,144.70
2017-12-21T15:34:26.787Z,153.07
2017-12-21T15:36:29.433Z,154.23
2017-12-21T15:38:32.109Z,147.13
2017-12-21T15:40:34.761Z,159.43
2017-12-21T15:42:37.504Z,150.80
2017-12-21T15:44:40.960Z,154.67
2017-12-21T15:46:43.697Z,174.17
2017-12-21T15:48:46.533Z,182.47
2017-12-21T15:50:49.289Z,188.40
2017-12-21T15:52:51.936Z,195.70
2017-12-21T15:54:54.580Z,220.30
2017-12-21T15:56:58.210Z,240.47
2017-12-21T15:59:00.889Z,229.60
2017-12-21T16:01:03.609Z,209.93
2017-12-21T16:03:06.340Z,266.47
2017-12-21T16:05:09.045Z,212.73
2017-12-21T16:07:11.893Z,216.07
2017-12-21T16:09:14.660Z,234.93
2017-12-21T16:11:18.129Z,250.80
2017-12-21T16:13:20.883Z,316.93
2017-12-21T16:15:23.658Z,339.17
2017-12-21T16:17:26.386Z,367.93
2017-12-21T16:19:29.812Z,304.73
2017-12-21T16:21:32.621Z,239.63
2017-12-21T16:23:35.296Z,294.20
2017-12-21T16:25:37.949Z,238.43
2017-12-21T16:27:40.686Z,215.67
2017-12-21T16:29:44.178Z,269.63
2017-12-21T16:31:47.664Z,217.53
2017-12-21T16:33:51.137Z,244.10
2017-12-21T16:35:54.705Z,274.17
2017-12-21T16:37:57.352Z,232.80
2017-12-21T16:40:00.060Z,276.13
2017-12-21T16:42:02.756Z,280.27
2017-12-21T16:44:05.432Z,238.20
2017-12-21T16:46:08.377Z,312.93
2017-12-21T16:48:11.056Z,279.77
2017-12-21T16:50:13.725Z,277.20
2017-12-21T16:52:16.421Z,295.17
2017-12-21T16:54:19.136Z,285.93
2017-12-21T16:56:21.815Z,384.30
2017-12-21T16:58:24.514Z,295.30
2017-12-21T17:00:28.085Z,313.60
2017-12-21T17:02:30.908Z,291.90
2017-12-21T17:04:33.683Z,283.90
2017-12-21T17:06:36.337Z,290.10
2017-12-21T17:08:39.038Z,308.03
2017-12-21T17:10:41.790Z,237.30
2017-12-21T17:12:45.262Z,235.60
2017-12-21T17:14:47.964Z,224.40
2017-12-21T17:16:51.508Z,235.60
2017-12-21T17:18:54.282Z,278.93
2017-12-21T17:20:57.014Z,328.67
2017-12-21T17:23:00.503Z,223.50
2017-12-21T17:25:04.307Z,229.40
2017-12-21T17:27:07.764Z,269.17
2017-12-21T17:29:10.503Z,255.93
2017-12-21T17:31:13.206Z,276.30
2017-12-21T17:33:15.893Z,247.67
2017-12-21T17:35:18.622Z,230.23
2017-12-21T17:37:22.096Z,313.63
2017-12-21T17:39:25.613Z,205.33
2017-12-21T17:41:29.080Z,272.20
2017-12-21T17:43:31.763Z,283.17
2017-12-21T17:45:34.448Z,282.17
2017-12-21T17:47:39.054Z,283.23
2017-12-21T17:49:41.809Z,291.87
2017-12-21T17:51:44.468Z,293.03
2017-12-21T17:53:47.178Z,243.53
2017-12-21T17:55:49.853Z,240.20
2017-12-21T17:57:52.559Z,253.93
2017-12-21T17:59:56.049Z,270.50
2017-12-21T18:01:58.897Z,244.20
2017-12-21T18:04:01.610Z,319.27
2017-12-21T18:06:05.061Z,291.13
2017-12-21T18:08:07.845Z,220.30
2017-12-21T18:10:10.505Z,242.13
2017-12-21T18:12:13.255Z,270.97
2017-12-21T18:14:16.058Z,253.40
2017-12-21T18:16:18.725Z,232.77
2017-12-21T18:18:21.422Z,249.50
2017-12-21T18:20:24.211Z,237.73
2017-12-21T18:22:26.927Z,250.07
2017-12-21T18:24:30.448Z,246.83
2017-12-21T18:26:33.112Z,361.03
2017-12-21T18:28:35.805Z,289.20
2017-12-21T18:30:38.486Z,287.27
2017-12-21T18:32:41.143Z,482.93
2017-12-21T18:34:43.859Z,534.17
2017-12-21T18:36:46.739Z,425.10
2017-12-21T18:38:50.169Z,362.00
2017-12-21T18:40:52.898Z,434.53
2017-12-21T18:42:55.574Z,344.03
2017-12-21T18:44:58.284Z,464.93
2017-12-21T18:47:01.065Z,439.53
2017-12-21T18:49:03.873Z,475.60
2017-12-21T18:51:07.335Z,348.47
2017-12-21T18:53:10.072Z,314.40
2017-12-21T18:55:12.752Z,327.53
2017-12-21T18:57:15.719Z,297.97
2017-12-21T18:59:18.446Z,370.33
2017-12-21T19:01:21.195Z,317.40
2017-12-21T19:03:23.943Z,296.83
2017-12-21T19:05:27.470Z,295.53
2017-12-21T19:07:31.279Z,293.40
2017-12-21T19:09:33.942Z,311.00
2017-12-21T19:11:37.217Z,302.37
2017-12-21T19:13:39.881Z,341.77
2017-12-21T19:15:43.367Z,288.60
2017-12-21T19:17:54.018Z,293.67
2017-12-21T19:19:56.961Z,356.63
2017-12-21T19:21:59.929Z,314.33
2017-12-21T19:24:03.535Z,383.97
2017-12-21T19:26:08.783Z,267.27
2017-12-21T19:28:11.558Z,293.40
2017-12-21T19:30:14.450Z,296.97
2017-12-21T19:32:17.193Z,320.80
2017-12-21T19:34:20.003Z,247.10
2017-12-21T19:36:22.795Z,278.47
2017-12-21T19:38:25.543Z,270.53
2017-12-21T19:40:28.278Z,290.37
2017-12-21T19:42:31.730Z,304.60
2017-12-21T19:44:34.415Z,290.97
2017-12-21T19:46:37.133Z,332.67
2017-12-21T19:48:40.573Z,265.93
2017-12-21T19:50:43.272Z,238.47
2017-12-21T19:52:45.953Z,337.07
2017-12-21T19:54:48.644Z,329.43
2017-12-21T19:56:51.337Z,235.97
2017-12-21T19:58:54.857Z,271.90
2017-12-21T20:00:57.646Z,298.77
2017-12-21T20:03:00.428Z,256.47
2017-12-21T20:05:03.121Z,251.27
2017-12-21T20:07:09.377Z,247.97
2017-12-21T20:09:12.273Z,311.23
2017-12-21T20:11:15.440Z,404.13
2017-12-21T20:13:18.121Z,324.00
2017-12-21T20:15:21.018Z,287.17
2017-12-21T20:17:23.758Z,272.57
2017-12-21T20:19:26.459Z,341.07
2017-12-21T20:21:29.139Z,258.17
2017-12-21T20:23:31.819Z,250.97
2017-12-21T20:25:34.643Z,291.30
2017-12-21T20:27:38.107Z,434.90
2017-12-21T20:29:40.801Z,281.67
2017-12-21T20:31:44.266Z,278.53
2017-12-21T20:33:46.957Z,290.23
2017-12-21T20:35:49.647Z,237.43
2017-12-21T20:37:53.061Z,274.13
2017-12-21T20:39:55.768Z,280.20
2017-12-21T20:41:58.448Z,302.23
2017-12-21T20:44:02.250Z,266.03
2017-12-21T20:46:04.966Z,322.37
2017-12-21T20:48:07.657Z,243.20
2017-12-21T20:50:11.120Z,307.53
2017-12-21T20:52:14.567Z,230.77
2017-12-21T20:54:17.249Z,272.70
2017-12-21T20:56:19.957Z,208.43
2017-12-21T20:58:23.510Z,201.03
2017-12-21T21:00:26.233Z,242.70
2017-12-21T21:02:28.918Z,261.73
2017-12-21T21:04:31.636Z,205.37
2017-12-21T21:06:35.053Z,250.67
2017-12-21T21:08:39.617Z,211.63
2017-12-21T21:10:42.380Z,222.10
2017-12-21T21:12:45.075Z,214.13
2017-12-21T21:14:47.856Z,173.20
2017-12-21T21:16:50.561Z,164.23
2017-12-21T21:18:54.032Z,152.77
2017-12-21T21:20:56.757Z,152.90
2017-12-21T21:22:59.555Z,178.90
2017-12-21T21:25:02.202Z,220.03
2017-12-21T21:27:04.897Z,163.40
2017-12-21T21:29:08.344Z,172.27
2017-12-21T21:31:11.774Z,211.80
2017-12-21T21:33:14.506Z,164.33
2017-12-21T21:35:17.225Z,161.27
2017-12-21T21:37:19.904Z,203.13
2017-12-21T21:39:22.672Z,166.47
2017-12-21T21:41:25.346Z,213.30
2017-12-21T21:43:28.017Z,216.80
2017-12-21T21:45:30.755Z,145.80
2017-12-21T21:47:33.441Z,189.40
2017-12-21T21:49:36.135Z,139.07
2017-12-21T21:51:39.599Z,167.90
2017-12-21T21:53:42.272Z,132.23
2017-12-21T21:55:45.272Z,155.67
2017-12-21T21:57:48.010Z,177.07
2017-12-21T21:59:50.686Z,153.43
2017-12-21T22:01:53.414Z,159.30
2017-12-21T22:03:56.898Z,186.00
2017-12-21T22:05:59.590Z,164.27
2017-12-21T22:08:03.103Z,175.33
2017-12-21T22:10:05.957Z,183.83
2017-12-21T22:12:08.634Z,141.20
2017-12-21T22:14:11.303Z,177.93
2017-12-21T22:16:14.036Z,139.93
2017-12-21T22:18:16.743Z,180.30
2017-12-21T22:20:19.412Z,152.57
2017-12-21T22:22:22.112Z,162.87
2017-12-21T22:24:24.802Z,152.70
2017-12-21T22:26:28.246Z,142.50
2017-12-21T22:28:30.951Z,203.30
2017-12-21T22:30:33.700Z,156.83
2017-12-21T22:32:36.422Z,155.60
2017-12-21T22:34:39.882Z,143.80
2017-12-21T22:36:42.575Z,155.53
2017-12-21T22:38:45.258Z,174.53
2017-12-21T22:40:47.957Z,186.50
2017-12-21T22:42:51.420Z,159.93
2017-12-21T22:44:54.091Z,164.80
2017-12-21T22:46:56.793Z,159.93
2017-12-21T22:49:00.251Z,137.27
2017-12-21T22:51:02.958Z,160.77
2017-12-21T22:53:05.680Z,191.07
2017-12-21T22:55:08.436Z,148.83
2017-12-21T22:57:11.860Z,185.17
2017-12-21T22:59:14.560Z,214.03
2017-12-21T23:01:18.012Z,201.77
2017-12-21T23:03:21.496Z,156.63
2017-12-21T23:05:24.328Z,164.10
2017-12-21T23:07:26.988Z,167.37
2017-12-21T23:09:29.703Z,288.53
2017-12-21T23:11:32.399Z,311.27
2017-12-21T23:13:35.838Z,179.70
2017-12-21T23:15:38.595Z,203.53
2017-12-21T23:17:41.262Z,409.70
2017-12-21T23:19:43.966Z,348.10
2017-12-21T23:21:46.718Z,509.47
2017-12-21T23:23:49.397Z,434.73
2017-12-21T23:25:52.082Z,286.77
2017-12-21T23:27:54.753Z,230.00
2017-12-21T23:29:57.414Z,386.53
2017-12-21T23:32:00.126Z,332.73
2017-12-21T23:34:02.821Z,527.97
2017-12-21T23:36:05.491Z,602.43
2017-12-21T23:38:08.241Z,379.37
2017-12-21T23:40:10.969Z,428.93
2017-12-21T23:42:13.619Z,485.07
2017-12-21T23:44:16.300Z,277.33
2017-12-21T23:46:18.977Z,423.73
2017-12-21T23:48:21.678Z,460.27
2017-12-21T23:50:24.366Z,275.40
2017-12-21T23:52:27.808Z,373.23
2017-12-21T23:54:30.531Z,255.57
2017-12-21T23:56:33.990Z,222.63
2017-12-21T23:58:36.707Z,426.27
